Accueil
METAR-TAF:

METAR-TAF

Aéroports :

Dübendorf, Suisse

latitude: 47-23-55N, longitude: 8-38-53E, altitude: 448 m

Observation

Le bulletin a été fait il y a 29 minutes, à 10:50 UTC
Vent 11 kt de nord-ouest, variant entre ouest et nord/nord-ouest
Température 5°C
Humidité 87%
Pression 1014 hPa
Visibilité 10 km ou plus
Quelques nuages à une hauteur de 1600 ft
Ciel couvert à une hauteur de 2500 ft
pluie

METAR: LSMD 251050Z AUTO 31011KT 280V340 9999NDV RA FEW016 OVC025 05/03 Q1014 RMK

Heure: 12:19 (11:19 UTC)


TAF: absent

Observations et prévisions météorologiques de plus de 4000 aéroports (messages METAR et TAF).

Les stations disponibles sont représentées par des disques jaunes et rouges sur la carte.

Passer la souris dessus pour voir le nom de la station.

Cliquer dessus pour voir les observations et prévisions météorologiques.

Pour changer de carte: cliquez sur les boutons verts avec une croix noire pour zoomer, sur le bouton vert avec un tiret pour effectuer un zoom arrière, ou sur les flèches vertes pour les cartes adjacentes.


METAR-TAF: